Time;durP1;ratioP1;P1;durP2;ratioP2;P2;SDS_P1;SDS_P2;PMS_P1;PMS_P2;Temp;Humidity;BMP_temperature;BMP_pressure;BME280_temperature;BME280_humidity;BME280_pressure;Samples;Min_cycle;Max_cycle;Signal;HPM_P1;HPM_P2
2022/04/10 00:00:12;;;;;;;11.03;3.30;;;4.20;1.00;;;;;;5033199;28;20558;-63
2022/04/10 00:02:39;;;;;;;5.03;2.47;;;4.20;1.00;;;;;;5033696;28;20179;-67
2022/04/10 00:05:05;;;;;;;3.80;1.73;;;4.20;1.00;;;;;;5033628;28;20456;-65
2022/04/10 00:07:30;;;;;;;2.13;2.00;;;4.10;1.00;;;;;;5033597;28;20403;-64
2022/04/10 00:09:56;;;;;;;5.13;2.17;;;4.10;1.00;;;;;;5032691;28;20517;-63
2022/04/10 00:12:22;;;;;;;4.10;2.27;;;4.00;1.00;;;;;;5033521;28;20227;-66
2022/04/10 00:14:47;;;;;;;8.20;3.20;;;4.10;1.00;;;;;;5033512;28;20168;-63
2022/04/10 00:17:14;;;;;;;3.87;2.00;;;4.10;1.00;;;;;;5033498;28;20172;-64
2022/04/10 00:19:41;;;;;;;4.80;3.00;;;4.10;1.00;;;;;;5032702;28;20255;-65
2022/04/10 00:22:07;;;;;;;3.93;2.20;;;4.10;1.00;;;;;;5033554;28;20445;-63
2022/04/10 00:24:32;;;;;;;8.00;2.50;;;4.00;1.00;;;;;;5033431;28;20937;-65
2022/04/10 00:26:59;;;;;;;5.40;2.40;;;3.90;1.00;;;;;;5033463;28;20399;-66
2022/04/10 00:29:24;;;;;;;6.37;2.37;;;3.90;1.00;;;;;;5032761;28;20563;-63
2022/04/10 00:31:51;;;;;;;4.83;2.50;;;3.90;1.00;;;;;;5033214;28;20450;-67
2022/04/10 00:34:17;;;;;;;9.40;2.83;;;3.90;1.00;;;;;;5033483;28;20166;-65
2022/04/10 00:36:42;;;;;;;9.70;2.60;;;3.90;1.00;;;;;;5032095;28;20509;-63
2022/04/10 00:39:08;;;;;;;2.10;2.00;;;3.80;1.00;;;;;;5032705;28;20405;-63
2022/04/10 00:41:34;;;;;;;5.07;2.30;;;3.80;1.00;;;;;;5033370;28;20206;-63
2022/04/10 00:44:10;;;;;;;2.80;1.90;;;3.70;1.00;;;;;;5033265;28;20169;-65
2022/04/10 00:46:38;;;;;;;2.40;2.20;;;3.70;1.00;;;;;;5033288;28;20399;-65
2022/04/10 00:49:05;;;;;;;9.13;2.10;;;3.70;1.00;;;;;;5032783;28;20461;-66
2022/04/10 00:51:41;;;;;;;5.63;2.17;;;3.60;1.00;;;;;;5037237;28;20516;-63
2022/04/10 00:54:18;;;;;;;2.90;1.83;;;3.70;1.00;;;;;;5037119;28;20398;-63
2022/04/10 00:56:44;;;;;;;4.00;1.97;;;3.50;1.00;;;;;;5035986;28;20433;-63
2022/04/10 00:59:10;;;;;;;4.30;1.67;;;3.60;1.00;;;;;;5036406;28;20416;-65
2022/04/10 01:01:37;;;;;;;3.83;1.83;;;3.50;1.00;;;;;;5037048;28;20418;-63
2022/04/10 01:04:04;;;;;;;3.40;2.17;;;3.50;1.00;;;;;;5036915;28;20468;-64
2022/04/10 01:06:32;;;;;;;10.10;2.13;;;3.50;1.00;;;;;;5036925;28;20401;-63
2022/04/10 01:08:58;;;;;;;7.30;2.40;;;3.50;1.00;;;;;;5036184;28;20418;-63
2022/04/10 01:11:24;;;;;;;8.87;1.70;;;3.70;1.00;;;;;;5036747;28;21016;-65
2022/04/10 01:13:53;;;;;;;2.13;2.03;;;3.60;1.00;;;;;;5035524;28;20418;-63
2022/04/10 01:16:21;;;;;;;2.50;2.37;;;3.60;1.00;;;;;;5036694;28;20398;-63
2022/04/10 01:18:47;;;;;;;10.83;2.40;;;3.60;1.00;;;;;;5036307;28;20426;-62
2022/04/10 01:21:21;;;;;;;4.80;2.57;;;3.60;1.00;;;;;;5036512;28;20414;-63
2022/04/10 01:23:47;;;;;;;2.50;2.30;;;3.70;1.00;;;;;;5036647;28;20410;-66
2022/04/10 01:26:12;;;;;;;5.83;2.10;;;3.70;1.00;;;;;;5036408;28;20415;-63
2022/04/10 01:29:07;;;;;;;6.43;2.30;;;3.70;1.00;;;;;;5035832;28;20498;-66
2022/04/10 01:31:38;;;;;;;8.57;2.43;;;3.60;1.00;;;;;;5036292;28;20827;-64
2022/04/10 01:34:06;;;;;;;4.13;2.10;;;3.60;1.00;;;;;;5036429;28;20411;-67
2022/04/10 01:36:32;;;;;;;5.93;2.40;;;3.60;1.00;;;;;;5036437;28;20452;-63
2022/04/10 01:39:00;;;;;;;2.70;2.17;;;3.60;1.00;;;;;;5035690;28;20474;-63
2022/04/10 01:41:27;;;;;;;3.50;2.47;;;3.70;1.00;;;;;;5036392;28;20417;-66
2022/04/10 01:43:54;;;;;;;3.20;2.30;;;3.70;1.00;;;;;;5036347;28;20452;-61
2022/04/10 01:46:22;;;;;;;12.40;2.70;;;3.70;1.00;;;;;;5036262;28;20394;-64
2022/04/10 01:48:47;;;;;;;2.23;1.87;;;3.70;1.00;;;;;;5035624;28;20900;-67
2022/04/10 01:51:14;;;;;;;5.90;2.30;;;3.70;1.00;;;;;;5035830;28;20446;-62
2022/04/10 01:53:40;;;;;;;3.73;2.80;;;3.70;1.00;;;;;;5036259;28;20167;-61
2022/04/10 01:56:07;;;;;;;2.47;2.27;;;3.80;1.00;;;;;;5036029;28;20390;-64
2022/04/10 01:58:38;;;;;;;16.23;3.50;;;3.80;1.00;;;;;;5035167;28;20394;-64
2022/04/10 02:01:06;;;;;;;7.30;1.87;;;3.80;1.00;;;;;;5035948;28;20461;-66
2022/04/10 02:03:32;;;;;;;3.40;1.93;;;3.80;1.00;;;;;;5035882;28;20414;-62
2022/04/10 02:05:57;;;;;;;2.20;1.97;;;3.80;1.00;;;;;;5035785;28;20478;-63
2022/04/10 02:08:24;;;;;;;3.93;2.17;;;3.70;1.00;;;;;;5035662;28;20892;-65
2022/04/10 02:10:49;;;;;;;2.60;2.43;;;3.70;1.00;;;;;;5035063;28;20203;-67
2022/04/10 02:13:15;;;;;;;4.60;2.37;;;3.60;1.00;;;;;;5035723;28;20441;-67
2022/04/10 02:15:41;;;;;;;4.83;2.77;;;3.60;1.00;;;;;;5035575;28;20247;-61
2022/04/10 02:18:07;;;;;;;3.73;1.93;;;3.50;1.00;;;;;;5035593;28;20441;-62
2022/04/10 02:20:33;;;;;;;2.87;1.97;;;3.50;1.00;;;;;;5033555;28;20209;-64
2022/04/10 02:22:59;;;;;;;6.33;2.40;;;3.50;1.00;;;;;;5035318;28;20423;-61
2022/04/10 02:25:25;;;;;;;6.13;2.77;;;3.50;1.00;;;;;;5035582;28;20438;-61
2022/04/10 02:27:51;;;;;;;2.97;2.40;;;3.50;1.00;;;;;;5035423;28;20441;-62
2022/04/10 02:30:18;;;;;;;8.40;2.63;;;3.50;1.00;;;;;;5034834;28;20214;-65
2022/04/10 02:32:44;;;;;;;2.30;2.20;;;3.40;1.00;;;;;;5033755;28;20556;-66
2022/04/10 02:35:10;;;;;;;8.13;3.40;;;3.40;1.00;;;;;;5035237;28;20405;-62
2022/04/10 02:37:36;;;;;;;11.40;3.00;;;3.50;1.00;;;;;;5035313;28;20391;-66
2022/04/10 02:40:04;;;;;;;8.20;2.57;;;3.50;1.00;;;;;;5034725;28;20487;-66
2022/04/10 02:42:33;;;;;;;2.63;2.07;;;3.40;1.00;;;;;;5035072;28;20410;-62
2022/04/10 02:44:59;;;;;;;8.73;2.57;;;3.40;1.00;;;;;;5034978;28;20411;-62
2022/04/10 02:47:25;;;;;;;7.33;2.37;;;3.40;1.00;;;;;;5035045;28;20414;-62
2022/04/10 02:49:50;;;;;;;5.57;3.10;;;3.40;1.00;;;;;;5034320;28;20405;-62
2022/04/10 02:52:16;;;;;;;9.10;2.70;;;3.50;1.00;;;;;;5034764;28;20734;-62
2022/04/10 02:54:42;;;;;;;2.60;2.40;;;3.40;1.00;;;;;;5035013;28;20191;-63
2022/04/10 02:57:07;;;;;;;3.93;2.83;;;3.50;1.00;;;;;;5034836;28;20187;-62
2022/04/10 02:59:34;;;;;;;3.87;2.50;;;3.50;1.00;;;;;;5034317;28;20172;-62
2022/04/10 03:01:59;;;;;;;2.90;2.20;;;3.40;1.00;;;;;;5034796;28;20544;-64
2022/04/10 03:04:25;;;;;;;7.10;2.97;;;3.40;1.00;;;;;;5033762;28;20399;-66
2022/04/10 03:06:51;;;;;;;6.73;3.17;;;3.30;1.00;;;;;;5034733;28;20560;-65
2022/04/10 03:09:17;;;;;;;2.93;2.43;;;3.30;1.00;;;;;;5033896;28;20233;-62
2022/04/10 03:11:43;;;;;;;4.80;2.60;;;3.30;1.00;;;;;;5034218;28;20994;-67
2022/04/10 03:14:08;;;;;;;4.53;2.67;;;3.30;1.00;;;;;;5034373;28;20395;-64
2022/04/10 03:16:34;;;;;;;6.93;2.53;;;3.30;1.00;;;;;;5034490;28;20171;-64
2022/04/10 03:19:00;;;;;;;5.23;2.70;;;3.20;1.00;;;;;;5033771;28;20560;-65
2022/04/10 03:21:29;;;;;;;10.20;3.00;;;3.10;1.00;;;;;;5034292;28;20293;-64
2022/04/10 03:23:55;;;;;;;6.63;3.03;;;3.10;1.00;;;;;;5034470;28;20176;-65
2022/04/10 03:26:20;;;;;;;15.83;4.20;;;3.10;1.00;;;;;;5034427;28;20406;-64
2022/04/10 03:28:46;;;;;;;8.60;2.90;;;3.10;1.00;;;;;;5033558;28;20167;-65
2022/04/10 03:31:11;;;;;;;3.77;2.37;;;3.20;1.00;;;;;;5033919;28;20203;-65
2022/04/10 03:33:37;;;;;;;9.10;2.77;;;3.20;1.00;;;;;;5034270;28;20254;-64
2022/04/10 03:36:03;;;;;;;9.30;3.73;;;3.10;1.00;;;;;;5032872;28;20262;-62
2022/04/10 03:38:28;;;;;;;8.40;3.20;;;3.10;1.00;;;;;;5033519;28;20239;-66
2022/04/10 03:40:54;;;;;;;3.47;3.20;;;3.10;1.00;;;;;;5034057;28;20394;-64
2022/04/10 03:43:20;;;;;;;13.83;2.70;;;3.10;1.00;;;;;;5033891;28;20194;-65
2022/04/10 03:45:45;;;;;;;6.67;2.83;;;3.10;1.00;;;;;;5033998;28;20637;-62
2022/04/10 03:48:11;;;;;;;5.10;3.87;;;3.10;1.00;;;;;;5034144;28;20179;-65
2022/04/10 03:50:37;;;;;;;10.10;3.87;;;3.20;1.00;;;;;;5033189;28;20625;-62
2022/04/10 03:53:04;;;;;;;2.63;2.37;;;3.20;1.00;;;;;;5033811;28;20195;-62
2022/04/10 03:55:30;;;;;;;4.97;2.60;;;3.20;1.00;;;;;;5032328;28;20783;-62
2022/04/10 03:57:56;;;;;;;8.07;4.50;;;3.20;1.00;;;;;;5033869;28;20406;-62
2022/04/10 04:00:22;;;;;;;13.53;2.60;;;3.20;1.00;;;;;;5033040;28;20764;-64
2022/04/10 04:02:48;;;;;;;5.70;3.23;;;3.20;1.00;;;;;;5033517;28;20434;-65
2022/04/10 04:05:13;;;;;;;5.07;2.03;;;3.20;1.00;;;;;;5033620;28;20286;-63
2022/04/10 04:07:40;;;;;;;5.73;2.77;;;3.10;1.00;;;;;;5033498;28;20418;-64
2022/04/10 04:10:07;;;;;;;9.40;3.20;;;3.10;1.00;;;;;;5032911;28;20191;-65
2022/04/10 04:12:36;;;;;;;5.37;2.73;;;3.10;1.00;;;;;;5033346;28;20454;-65
2022/04/10 04:15:03;;;;;;;6.67;2.50;;;3.10;1.00;;;;;;5033487;28;20774;-65
2022/04/10 04:17:29;;;;;;;2.93;2.23;;;3.10;1.00;;;;;;5033338;28;20410;-67
2022/04/10 04:19:55;;;;;;;9.40;3.60;;;3.10;1.00;;;;;;5032692;28;20406;-65
2022/04/10 04:22:20;;;;;;;11.47;3.07;;;3.10;1.00;;;;;;5033406;28;20192;-62
2022/04/10 04:24:46;;;;;;;4.07;2.47;;;3.10;1.00;;;;;;5032502;28;20171;-65
2022/04/10 04:27:12;;;;;;;4.80;2.57;;;3.00;1.00;;;;;;5033370;28;20183;-65
2022/04/10 04:29:37;;;;;;;8.27;2.67;;;3.00;1.00;;;;;;5031255;28;20179;-66
2022/04/10 04:32:04;;;;;;;4.13;2.60;;;3.00;1.00;;;;;;5033084;28;20481;-66
2022/04/10 04:34:30;;;;;;;4.23;2.33;;;3.00;1.00;;;;;;5032229;28;20514;-64
2022/04/10 04:36:55;;;;;;;8.63;2.80;;;3.00;1.00;;;;;;5033274;28;20402;-65
2022/04/10 04:39:21;;;;;;;7.20;2.40;;;3.00;1.00;;;;;;5032563;28;20175;-62
2022/04/10 04:41:47;;;;;;;6.93;2.40;;;3.00;1.00;;;;;;5033084;28;20199;-64
2022/04/10 04:44:12;;;;;;;11.57;3.63;;;2.90;1.00;;;;;;5033436;28;20702;-62
2022/04/10 04:46:38;;;;;;;2.70;2.50;;;2.90;1.00;;;;;;5032099;28;20456;-65
2022/04/10 04:49:04;;;;;;;4.13;2.70;;;3.00;1.00;;;;;;5032269;28;20175;-65
2022/04/10 04:51:34;;;;;;;4.50;2.40;;;3.00;1.00;;;;;;5033018;28;20199;-65
2022/04/10 04:54:03;;;;;;;9.60;3.37;;;3.00;1.00;;;;;;5033037;28;20729;-62
2022/04/10 04:56:29;;;;;;;6.23;2.87;;;3.10;1.00;;;;;;5033000;28;20398;-62
2022/04/10 04:58:55;;;;;;;4.90;2.20;;;3.10;1.00;;;;;;5032359;28;20424;-62
2022/04/10 05:01:21;;;;;;;5.37;2.30;;;3.00;1.00;;;;;;5033052;28;20796;-62
2022/04/10 05:03:49;;;;;;;8.80;2.90;;;3.00;1.00;;;;;;5033000;28;20268;-66
2022/04/10 05:06:15;;;;;;;12.20;2.80;;;3.10;1.00;;;;;;5032858;28;20444;-62
2022/04/10 05:08:41;;;;;;;5.17;2.33;;;3.10;1.00;;;;;;5032288;28;20411;-65
2022/04/10 05:11:11;;;;;;;5.80;2.40;;;3.20;1.00;;;;;;5032779;28;20668;-65
2022/04/10 05:13:36;;;;;;;4.80;2.43;;;3.20;1.00;;;;;;5032894;28;20445;-62
2022/04/10 05:16:02;;;;;;;7.90;3.40;;;3.20;1.00;;;;;;5032727;28;20398;-64
2022/04/10 05:18:28;;;;;;;2.50;2.30;;;3.20;1.00;;;;;;5032575;28;20174;-65
2022/04/10 05:20:53;;;;;;;4.03;2.93;;;3.30;1.00;;;;;;5032743;28;20171;-65
2022/04/10 05:23:19;;;;;;;4.80;2.60;;;3.30;1.00;;;;;;5032743;28;20287;-65
2022/04/10 05:25:45;;;;;;;3.93;2.87;;;3.30;1.00;;;;;;5032775;28;20266;-64
2022/04/10 05:28:11;;;;;;;2.63;1.90;;;3.20;1.00;;;;;;5032586;28;20498;-65
2022/04/10 05:30:38;;;;;;;3.80;2.97;;;3.20;1.00;;;;;;5032049;28;20195;-62
2022/04/10 05:33:04;;;;;;;11.70;2.80;;;3.30;1.00;;;;;;5032691;28;20414;-62
2022/04/10 05:35:30;;;;;;;5.53;3.20;;;3.30;1.00;;;;;;5033514;28;20403;-64
2022/04/10 05:37:55;;;;;;;9.23;2.43;;;3.40;1.00;;;;;;5036228;28;20414;-67
2022/04/10 05:40:22;;;;;;;5.40;2.70;;;3.30;1.00;;;;;;5035511;28;20406;-67
2022/04/10 05:42:48;;;;;;;19.13;3.93;;;3.40;1.00;;;;;;5036449;28;20187;-65
2022/04/10 05:45:14;;;;;;;9.00;3.40;;;3.50;1.00;;;;;;5035041;28;20409;-66
2022/04/10 05:47:41;;;;;;;14.35;2.55;;;3.60;1.00;;;;;;5035917;28;20488;-67
2022/04/10 05:50:08;;;;;;;8.17;2.70;;;3.60;1.00;;;;;;5035671;28;20501;-66
2022/04/10 05:52:43;;;;;;;6.37;3.30;;;3.70;1.00;;;;;;5035957;28;20462;-68
2022/04/10 05:55:10;;;;;;;9.93;2.43;;;3.60;1.00;;;;;;5034789;28;20403;-64
2022/04/10 05:57:36;;;;;;;9.03;3.87;;;3.70;1.00;;;;;;5036171;28;20465;-67
2022/04/10 06:00:08;;;;;;;4.83;2.93;;;3.60;1.00;;;;;;5035468;28;20398;-67
2022/04/10 06:02:34;;;;;;;4.90;3.07;;;3.60;1.00;;;;;;5035754;28;20421;-68
2022/04/10 06:05:00;;;;;;;17.87;3.03;;;3.50;1.00;;;;;;5035867;28;20978;-64
2022/04/10 06:07:26;;;;;;;3.70;2.40;;;3.60;1.00;;;;;;5035737;28;20179;-65
2022/04/10 06:09:51;;;;;;;2.67;2.47;;;3.60;1.00;;;;;;5035035;28;20536;-64
2022/04/10 06:12:17;;;;;;;8.57;3.27;;;3.70;1.00;;;;;;5035497;28;20456;-68
2022/04/10 06:14:42;;;;;;;5.00;2.50;;;3.80;1.00;;;;;;5035670;28;20180;-67
2022/04/10 06:17:08;;;;;;;3.83;3.00;;;3.80;1.00;;;;;;5035644;28;20174;-67
2022/04/10 06:19:34;;;;;;;14.17;2.60;;;3.90;1.00;;;;;;5035058;28;20545;-64
2022/04/10 06:22:00;;;;;;;3.77;2.60;;;3.90;1.00;;;;;;5035408;28;20206;-67
2022/04/10 06:24:27;;;;;;;9.80;3.07;;;4.00;1.00;;;;;;5035397;28;20456;-67
2022/04/10 06:26:53;;;;;;;5.60;3.03;;;4.10;1.00;;;;;;5035322;28;20406;-64
2022/04/10 06:29:19;;;;;;;10.40;2.80;;;4.20;1.00;;;;;;5034862;28;20416;-68
2022/04/10 06:31:45;;;;;;;6.40;3.03;;;4.20;1.00;;;;;;5035317;28;20454;-67
2022/04/10 06:34:11;;;;;;;13.50;3.00;;;4.30;1.00;;;;;;5035252;28;20456;-64
2022/04/10 06:36:38;;;;;;;9.93;3.10;;;4.40;1.00;;;;;;5035006;28;20395;-65
2022/04/10 06:39:04;;;;;;;11.27;3.27;;;4.50;1.00;;;;;;5034432;28;20408;-68
2022/04/10 06:41:30;;;;;;;9.80;2.77;;;4.50;1.00;;;;;;5035416;28;20492;-68
2022/04/10 06:43:55;;;;;;;10.23;2.47;;;4.40;1.00;;;;;;5035342;28;20514;-64
2022/04/10 06:46:21;;;;;;;13.13;2.53;;;4.50;1.00;;;;;;5035051;28;20181;-64
2022/04/10 06:48:47;;;;;;;3.60;2.70;;;4.50;1.00;;;;;;5033717;28;20734;-67
2022/04/10 06:51:13;;;;;;;6.60;2.43;;;4.40;1.00;;;;;;5034958;28;20519;-65
2022/04/10 06:53:38;;;;;;;9.00;3.20;;;4.50;1.00;;;;;;5035239;28;20179;-64
2022/04/10 06:56:04;;;;;;;3.93;2.63;;;4.50;1.00;;;;;;5035005;28;20696;-67
2022/04/10 06:58:30;;;;;;;7.37;2.90;;;4.60;1.00;;;;;;5034386;28;20630;-66
2022/04/10 07:00:55;;;;;;;15.53;3.40;;;4.70;1.00;;;;;;5034861;28;20633;-64
2022/04/10 07:03:21;;;;;;;3.70;2.73;;;4.80;1.00;;;;;;5034810;28;20252;-67
2022/04/10 07:05:49;;;;;;;9.70;2.97;;;4.90;1.00;;;;;;5034712;28;20178;-67
2022/04/10 07:08:15;;;;;;;3.23;2.40;;;5.00;1.00;;;;;;5034679;28;20486;-67
2022/04/10 07:10:41;;;;;;;4.17;2.57;;;5.10;1.00;;;;;;5033790;28;20421;-68
2022/04/10 07:13:07;;;;;;;9.90;2.97;;;5.20;1.00;;;;;;5034429;28;20425;-67
2022/04/10 07:15:32;;;;;;;3.60;2.20;;;5.20;1.00;;;;;;5033545;28;20190;-67
2022/04/10 07:17:58;;;;;;;2.90;2.30;;;5.00;1.00;;;;;;5034488;28;20399;-67
2022/04/10 07:20:24;;;;;;;3.73;2.17;;;5.00;1.00;;;;;;5033751;28;20646;-64
2022/04/10 07:25:35;;;;;;;2.13;2.00;;;5.10;1.00;;;;;;5034452;28;20410;-66
2022/04/10 07:28:02;;;;;;;3.40;2.00;;;5.10;1.00;;;;;;5034428;28;20416;-64
2022/04/10 07:30:27;;;;;;;3.30;2.13;;;5.30;1.00;;;;;;5033653;28;20462;-64
2022/04/10 07:32:55;;;;;;;6.97;2.37;;;5.50;1.00;;;;;;5034034;28;20459;-65
2022/04/10 07:35:21;;;;;;;6.00;2.20;;;5.50;1.00;;;;;;5034108;28;20168;-68
2022/04/10 07:37:50;;;;;;;3.97;2.73;;;5.40;1.00;;;;;;5034277;28;20881;-64
2022/04/10 07:40:16;;;;;;;2.70;2.10;;;5.10;1.00;;;;;;5032020;28;20174;-66
2022/04/10 07:42:43;;;;;;;2.80;1.80;;;5.10;1.00;;;;;;5034004;28;21054;-64
2022/04/10 07:45:10;;;;;;;3.37;2.10;;;5.20;1.00;;;;;;5033836;28;20438;-65
2022/04/10 07:47:36;;;;;;;1.70;1.60;;;5.20;1.00;;;;;;5032657;28;20418;-65
2022/04/10 07:50:03;;;;;;;10.63;2.37;;;5.20;1.00;;;;;;5033308;28;20408;-64
2022/04/10 07:52:29;;;;;;;5.47;2.60;;;5.30;1.00;;;;;;5033863;28;20480;-64
2022/04/10 07:54:54;;;;;;;7.93;2.97;;;5.30;1.00;;;;;;5033937;28;20396;-68
2022/04/10 07:57:21;;;;;;;5.03;2.47;;;5.20;99.90;;;;;;5032798;28;20404;-67
2022/04/10 07:59:47;;;;;;;3.30;2.67;;;5.20;99.90;;;;;;5031865;28;20170;-65
2022/04/10 08:02:12;;;;;;;4.03;2.50;;;5.30;99.90;;;;;;5032378;28;20436;-67
2022/04/10 08:04:39;;;;;;;7.50;2.80;;;5.30;99.90;;;;;;5033693;28;20955;-66
2022/04/10 08:07:05;;;;;;;4.90;2.50;;;5.30;99.90;;;;;;5033724;28;20234;-64
2022/04/10 08:09:32;;;;;;;5.17;2.30;;;5.40;99.90;;;;;;5032846;28;20980;-68
2022/04/10 08:11:58;;;;;;;4.37;2.40;;;5.30;99.90;;;;;;5033520;28;20452;-67
2022/04/10 08:14:23;;;;;;;2.37;2.17;;;5.60;99.90;;;;;;5033578;28;20401;-68
2022/04/10 08:16:49;;;;;;;5.30;2.37;;;5.70;99.90;;;;;;5033693;28;20402;-68
2022/04/10 08:19:14;;;;;;;6.80;2.40;;;5.90;99.90;;;;;;5032805;28;20167;-64
2022/04/10 08:21:40;;;;;;;6.03;2.57;;;5.90;99.90;;;;;;5033243;28;20201;-64
2022/04/10 08:24:08;;;;;;;5.60;2.67;;;6.00;99.90;;;;;;5033428;28;20221;-67
2022/04/10 08:26:34;;;;;;;5.73;2.60;;;6.10;99.90;;;;;;5033511;28;20168;-67
2022/04/10 08:29:00;;;;;;;2.13;2.03;;;6.20;99.90;;;;;;5032748;28;20423;-67
2022/04/10 08:31:28;;;;;;;14.93;2.77;;;6.20;99.90;;;;;;5033101;28;20213;-66
2022/04/10 08:33:53;;;;;;;9.70;2.77;;;6.20;99.90;;;;;;5032073;28;20561;-64
2022/04/10 08:36:19;;;;;;;3.63;2.33;;;6.30;99.90;;;;;;5031955;28;20509;-64
2022/04/10 08:38:45;;;;;;;9.53;3.10;;;6.50;99.90;;;;;;5032654;28;20195;-65
2022/04/10 08:41:13;;;;;;;3.40;2.10;;;6.50;99.90;;;;;;5033174;28;20163;-68
2022/04/10 08:43:39;;;;;;;4.47;2.80;;;6.60;99.90;;;;;;5032015;28;20497;-69
2022/04/10 08:46:06;;;;;;;9.80;2.93;;;6.90;99.90;;;;;;5033137;28;20426;-65
2022/04/10 08:48:33;;;;;;;5.03;2.70;;;7.00;99.90;;;;;;5032596;28;20533;-69
2022/04/10 08:51:01;;;;;;;12.10;3.73;;;7.00;99.90;;;;;;5033007;28;20481;-68
2022/04/10 08:53:27;;;;;;;16.10;3.60;;;7.20;99.90;;;;;;5032911;28;20419;-66
2022/04/10 08:55:54;;;;;;;9.87;3.13;;;7.50;99.90;;;;;;5033230;28;20903;-65
2022/04/10 08:58:20;;;;;;;5.97;3.17;;;7.50;99.90;;;;;;5031904;28;20819;-67
2022/04/10 09:00:46;;;;;;;5.33;3.00;;;7.60;99.90;;;;;;5032531;28;20394;-65
2022/04/10 09:03:12;;;;;;;2.47;2.13;;;7.90;99.90;;;;;;5033119;28;20426;-64
2022/04/10 09:05:40;;;;;;;6.83;3.20;;;7.90;99.90;;;;;;5032999;28;20159;-65
2022/04/10 09:08:10;;;;;;;7.50;3.50;;;7.60;99.90;;;;;;5033020;28;20163;-64
2022/04/10 09:10:59;;;;;;;5.23;2.53;;;7.20;99.90;;;;;;5033208;28;20493;-64
2022/04/10 09:13:32;;;;;;;5.20;2.83;;;7.50;99.90;;;;;;5036816;28;20472;-67
2022/04/10 09:16:09;;;;;;;9.33;2.83;;;7.40;99.90;;;;;;5036845;28;20426;-64
2022/04/10 09:19:00;;;;;;;5.60;2.33;;;7.00;99.90;;;;;;5034803;28;20414;-68
2022/04/10 09:21:34;;;;;;;3.20;1.83;;;6.80;99.90;;;;;;5035405;28;20926;-69
2022/04/10 09:24:07;;;;;;;3.17;2.03;;;6.50;99.90;;;;;;5035377;28;20459;-65
2022/04/10 09:26:49;;;;;;;10.93;2.40;;;6.50;99.90;;;;;;5036754;28;20402;-65
2022/04/10 09:29:17;;;;;;;4.30;2.23;;;6.60;99.90;;;;;;5035930;28;20426;-68
2022/04/10 09:31:43;;;;;;;2.83;2.50;;;6.90;99.90;;;;;;5036359;28;20453;-64
2022/04/10 09:34:13;;;;;;;4.80;1.93;;;7.20;99.90;;;;;;5036456;28;20445;-67
2022/04/10 09:36:40;;;;;;;3.93;2.70;;;7.20;99.90;;;;;;5036572;28;20398;-67
2022/04/10 09:39:12;;;;;;;2.47;2.27;;;7.40;99.90;;;;;;5035751;28;20408;-64
2022/04/10 09:41:39;;;;;;;11.70;3.47;;;7.70;99.90;;;;;;5036383;28;20433;-68
2022/04/10 09:44:12;;;;;;;4.70;2.23;;;8.50;99.90;;;;;;5036161;28;20394;-65
2022/04/10 09:46:38;;;;;;;3.93;3.50;;;8.50;99.90;;;;;;5036496;28;20405;-64
2022/04/10 09:49:10;;;;;;;5.43;2.17;;;8.20;99.90;;;;;;5035528;28;20505;-64
2022/04/10 09:51:36;;;;;;;5.47;2.40;;;8.20;99.90;;;;;;5036145;28;20458;-67
2022/04/10 09:54:04;;;;;;;5.20;2.67;;;8.70;99.90;;;;;;5036059;28;20400;-65
2022/04/10 09:56:30;;;;;;;2.70;1.77;;;9.00;99.90;;;;;;5036195;28;20166;-68
2022/04/10 09:59:00;;;;;;;2.70;2.50;;;9.40;99.90;;;;;;5035362;28;20405;-64
2022/04/10 10:01:27;;;;;;;3.50;2.20;;;9.70;99.90;;;;;;5036123;28;20579;-68
2022/04/10 10:03:56;;;;;;;1.93;1.73;;;10.10;99.90;;;;;;5034708;28;20764;-67
2022/04/10 10:06:23;;;;;;;5.97;2.13;;;10.30;99.90;;;;;;5034716;28;20760;-65
2022/04/10 10:08:49;;;;;;;9.33;2.33;;;10.50;99.90;;;;;;5035240;28;20496;-65
2022/04/10 10:11:16;;;;;;;3.43;1.67;;;10.70;99.90;;;;;;5035690;28;20444;-68
2022/04/10 10:13:42;;;;;;;6.93;1.87;;;11.20;99.90;;;;;;5035946;28;20468;-65
2022/04/10 10:16:09;;;;;;;7.30;1.90;;;11.30;99.90;;;;;;5035711;28;20855;-69
2022/04/10 10:18:36;;;;;;;4.60;2.47;;;11.50;99.90;;;;;;5035076;28;20406;-69
2022/04/10 10:21:03;;;;;;;2.13;1.90;;;11.50;99.90;;;;;;5035620;28;20382;-65
2022/04/10 10:23:28;;;;;;;3.63;2.03;;;11.60;99.90;;;;;;5034303;28;20422;-66
2022/04/10 10:26:13;;;;;;;2.90;1.70;;;11.70;99.90;;;;;;5035520;28;20465;-67
2022/04/10 10:29:21;;;;;;;5.70;3.00;;;11.80;99.90;;;;;;5034806;28;20648;-68
2022/04/10 10:32:22;;;;;;;5.10;2.13;;;12.00;99.90;;;;;;5035298;28;21033;-65
2022/04/10 10:34:51;;;;;;;4.27;2.00;;;12.20;99.90;;;;;;5034522;28;20381;-68
2022/04/10 10:37:31;;;;;;;3.50;1.73;;;12.20;99.90;;;;;;5035430;28;20397;-65
2022/04/10 10:39:58;;;;;;;3.60;2.30;;;12.60;99.90;;;;;;5034604;28;20870;-68
2022/04/10 10:42:24;;;;;;;2.83;1.97;;;12.40;99.90;;;;;;5034941;28;20735;-66
2022/04/10 10:44:51;;;;;;;7.07;2.47;;;12.30;99.90;;;;;;5035074;28;20481;-69
2022/04/10 10:47:20;;;;;;;5.20;2.70;;;12.60;99.90;;;;;;5035154;28;20798;-68
2022/04/10 10:49:47;;;;;;;9.00;2.27;;;13.20;99.90;;;;;;5033432;28;20385;-65
2022/04/10 10:52:14;;;;;;;5.40;1.90;;;13.00;99.90;;;;;;5034912;28;20536;-69
2022/04/10 10:54:57;;;;;;;3.20;2.17;;;12.60;99.90;;;;;;5035065;28;20398;-69
2022/04/10 10:57:37;;;;;;;2.33;1.80;;;11.40;99.90;;;;;;5035041;28;20391;-65
2022/04/10 11:00:07;;;;;;;4.57;2.07;;;10.60;99.90;;;;;;5034612;28;20402;-65
2022/04/10 11:02:35;;;;;;;3.13;2.87;;;10.10;99.90;;;;;;5034732;28;20914;-65
2022/04/10 11:05:05;;;;;;;4.90;2.00;;;10.40;99.90;;;;;;5033688;28;20392;-67
2022/04/10 11:07:32;;;;;;;2.80;2.03;;;11.20;99.90;;;;;;5034883;28;20915;-65
2022/04/10 11:10:00;;;;;;;6.57;2.57;;;11.90;99.90;;;;;;5034062;28;20418;-69
2022/04/10 11:12:47;;;;;;;3.20;2.90;;;12.50;99.90;;;;;;5034565;28;20503;-65
2022/04/10 11:15:23;;;;;;;2.60;2.13;;;13.20;99.90;;;;;;5034884;28;20397;-65
2022/04/10 11:17:51;;;;;;;2.77;1.57;;;12.80;99.90;;;;;;5034842;28;20369;-69
2022/04/10 11:20:23;;;;;;;2.27;1.80;;;12.40;99.90;;;;;;5034011;28;20394;-65
2022/04/10 11:22:51;;;;;;;4.30;1.33;;;12.80;99.90;;;;;;5033067;28;20466;-66
2022/04/10 11:25:19;;;;;;;1.77;1.67;;;13.50;99.90;;;;;;5034555;28;20501;-68
2022/04/10 11:27:55;;;;;;;3.00;1.50;;;13.50;99.90;;;;;;5034466;28;20407;-68
2022/04/10 11:30:33;;;;;;;5.83;1.80;;;13.30;99.90;;;;;;5033683;28;20377;-65
2022/04/10 11:32:58;;;;;;;6.10;1.57;;;13.20;99.90;;;;;;5033592;28;20428;-69
2022/04/10 11:35:49;;;;;;;4.73;1.43;;;13.90;99.90;;;;;;5034406;28;20392;-65
2022/04/10 11:38:18;;;;;;;1.93;1.50;;;14.20;99.90;;;;;;5034101;28;20183;-69
2022/04/10 11:40:47;;;;;;;3.07;2.00;;;14.00;99.90;;;;;;5033387;28;20406;-70
2022/04/10 11:43:18;;;;;;;8.73;2.00;;;13.30;99.90;;;;;;5032684;28;20442;-65
2022/04/10 11:45:53;;;;;;;4.87;1.37;;;12.80;99.90;;;;;;5034359;28;20505;-65
2022/04/10 11:48:19;;;;;;;2.37;1.70;;;12.10;99.90;;;;;;5034083;28;20388;-68
2022/04/10 11:50:45;;;;;;;5.13;1.70;;;11.90;99.90;;;;;;5033202;28;20421;-65
2022/04/10 11:53:12;;;;;;;5.60;2.10;;;11.80;99.90;;;;;;5033873;28;20191;-65
2022/04/10 11:55:41;;;;;;;4.00;1.87;;;11.00;99.90;;;;;;5033902;28;20524;-68
2022/04/10 11:58:21;;;;;;;4.97;1.80;;;10.50;99.90;;;;;;5033990;28;20440;-67
2022/04/10 12:00:51;;;;;;;6.70;2.57;;;10.50;99.90;;;;;;5033405;28;20376;-69
2022/04/10 12:03:25;;;;;;;5.47;1.90;;;10.80;99.90;;;;;;5033707;28;20421;-65
2022/04/10 12:05:51;;;;;;;4.10;2.00;;;10.80;99.90;;;;;;5033793;28;20435;-65
2022/04/10 12:08:18;;;;;;;4.57;1.93;;;11.00;99.90;;;;;;5033874;28;20397;-65
2022/04/10 12:10:54;;;;;;;5.90;2.50;;;11.40;99.90;;;;;;5033020;28;20418;-69
2022/04/10 12:13:20;;;;;;;3.60;1.50;;;11.20;99.90;;;;;;5033510;28;20912;-69
2022/04/10 12:15:45;;;;;;;3.53;1.90;;;10.90;99.90;;;;;;5033752;28;20468;-70
2022/04/10 12:18:13;;;;;;;2.37;1.90;;;10.50;99.90;;;;;;5033588;28;20456;-67
2022/04/10 12:20:43;;;;;;;3.23;2.50;;;10.10;99.90;;;;;;5032932;28;20164;-65
2022/04/10 12:23:24;;;;;;;2.00;1.63;;;10.10;99.90;;;;;;5033376;28;20414;-66
2022/04/10 12:25:51;;;;;;;5.43;1.90;;;10.40;99.90;;;;;;5033503;28;20437;-65
2022/04/10 12:28:18;;;;;;;2.90;1.83;;;11.10;99.90;;;;;;5033439;28;20398;-65
2022/04/10 12:30:44;;;;;;;2.60;1.83;;;11.80;99.90;;;;;;5032708;28;20484;-66
2022/04/10 12:33:11;;;;;;;7.70;1.97;;;12.30;99.90;;;;;;5033192;28;20984;-67
2022/04/10 12:35:38;;;;;;;5.87;1.83;;;12.40;99.90;;;;;;5033235;28;20407;-65
2022/04/10 12:38:05;;;;;;;6.30;1.70;;;11.70;99.90;;;;;;5033392;28;20365;-69
2022/04/10 12:40:31;;;;;;;5.33;2.77;;;10.90;99.90;;;;;;5032650;28;20369;-65
2022/04/10 12:43:02;;;;;;;3.07;2.20;;;11.30;99.90;;;;;;5031975;28;20409;-65
2022/04/10 12:45:32;;;;;;;5.03;1.33;;;11.60;99.90;;;;;;5033964;28;20380;-68
2022/04/10 12:47:59;;;;;;;2.27;1.60;;;11.60;99.90;;;;;;5036378;28;20414;-65
2022/04/10 12:50:28;;;;;;;6.90;2.10;;;11.40;99.90;;;;;;5036744;28;20460;-65
2022/04/10 12:52:55;;;;;;;1.37;1.27;;;10.90;99.90;;;;;;5037329;28;20803;-65
2022/04/10 12:55:36;;;;;;;4.60;2.30;;;10.60;99.90;;;;;;5037243;28;20418;-67
2022/04/10 12:58:04;;;;;;;5.00;2.23;;;10.40;99.90;;;;;;5037380;28;20393;-68
2022/04/10 13:00:35;;;;;;;3.40;2.13;;;10.40;99.90;;;;;;5036534;28;20508;-65
2022/04/10 13:03:19;;;;;;;8.33;1.90;;;11.10;99.90;;;;;;5037220;28;20758;-65
2022/04/10 13:06:03;;;;;;;1.53;1.40;;;12.80;99.90;;;;;;5037172;28;20739;-66